Time;durP1;ratioP1;P1;durP2;ratioP2;P2;SDS_P1;SDS_P2;PMS_P1;PMS_P2;Temp;Humidity;BMP_temperature;BMP_pressure;BME280_temperature;BME280_humidity;BME280_pressure;Samples;Min_cycle;Max_cycle;Signal;HPM_P1;HPM_P2
2022/03/04 00:02:26;;;;;;;1999.90;999.90;;;1.00;99.90;;;;;;5054877;28;20486;-72
2022/03/04 00:04:53;;;;;;;1999.90;999.90;;;1.00;99.90;;;;;;5056363;28;20508;-70
2022/03/04 00:07:19;;;;;;;1999.90;999.90;;;1.10;99.90;;;;;;5054477;28;20533;-69
2022/03/04 00:09:46;;;;;;;1999.90;999.90;;;1.20;99.90;;;;;;5054645;28;20457;-69
2022/03/04 00:12:13;;;;;;;1999.90;999.90;;;1.20;99.90;;;;;;5054833;28;20488;-69
2022/03/04 00:14:40;;;;;;;1999.90;999.90;;;1.20;99.90;;;;;;5053760;28;20468;-67
2022/03/04 00:17:08;;;;;;;1999.90;999.90;;;1.00;99.90;;;;;;5055662;28;20536;-69
2022/03/04 00:19:35;;;;;;;1999.90;999.90;;;1.00;99.90;;;;;;5054492;28;20508;-69
2022/03/04 00:22:02;;;;;;;1999.90;999.90;;;1.00;99.90;;;;;;5054090;28;20832;-68
2022/03/04 00:24:28;;;;;;;1999.90;999.90;;;1.00;99.90;;;;;;5054664;28;20484;-69
2022/03/04 00:26:55;;;;;;;1999.90;999.90;;;1.10;99.90;;;;;;5056139;28;20454;-69
2022/03/04 00:29:22;;;;;;;1999.90;999.90;;;1.00;99.90;;;;;;5058160;28;20992;-69
2022/03/04 00:31:48;;;;;;;1999.90;999.90;;;1.00;99.90;;;;;;5057781;28;21012;-68
2022/03/04 00:34:16;;;;;;;1999.90;999.90;;;1.10;99.90;;;;;;5062383;28;20881;-69
2022/03/04 00:36:43;;;;;;;1999.90;999.90;;;1.10;99.90;;;;;;5055617;28;20478;-70
2022/03/04 00:39:11;;;;;;;1999.90;999.90;;;1.20;99.90;;;;;;5054013;28;20551;-69
2022/03/04 00:41:39;;;;;;;1999.90;999.90;;;1.20;99.90;;;;;;5062844;28;20542;-68
2022/03/04 00:44:06;;;;;;;1999.90;999.90;;;1.10;99.90;;;;;;5051933;22;20499;-68
2022/03/04 00:46:33;;;;;;;1999.90;999.90;;;1.20;99.90;;;;;;5032723;28;20959;-70
2022/03/04 00:48:59;;;;;;;1999.90;999.90;;;1.10;99.90;;;;;;5033171;28;20520;-70
2022/03/04 00:51:28;;;;;;;1999.90;999.90;;;1.10;99.90;;;;;;5032294;28;20520;-70
2022/03/04 00:53:54;;;;;;;1999.90;999.90;;;1.10;99.90;;;;;;5033717;28;20506;-70
2022/03/04 00:56:21;;;;;;;1999.90;999.90;;;1.10;99.90;;;;;;5030714;28;20495;-70
2022/03/04 00:58:48;;;;;;;1999.90;999.90;;;1.20;99.90;;;;;;5027090;28;20546;-70
2022/03/04 01:01:16;;;;;;;1999.90;999.90;;;1.20;99.90;;;;;;5021273;28;20822;-70
2022/03/04 01:03:43;;;;;;;1999.90;999.90;;;1.20;99.90;;;;;;5033274;28;20491;-70
2022/03/04 01:06:09;;;;;;;1999.90;999.90;;;1.30;99.90;;;;;;5033101;28;20951;-70
2022/03/04 01:08:37;;;;;;;1999.90;999.90;;;1.10;99.90;;;;;;5022824;28;20868;-70
2022/03/04 01:11:04;;;;;;;1999.90;999.90;;;1.10;99.90;;;;;;5032058;28;20503;-70
2022/03/04 01:13:31;;;;;;;1999.90;999.90;;;1.10;99.90;;;;;;5033448;28;20493;-70
2022/03/04 01:15:57;;;;;;;1999.90;999.90;;;1.10;99.90;;;;;;5031305;28;21431;-71
2022/03/04 01:18:24;;;;;;;1999.90;999.90;;;1.10;99.90;;;;;;5033519;28;20482;-71
2022/03/04 01:20:51;;;;;;;1999.90;999.90;;;1.10;99.90;;;;;;5031967;28;20459;-69
2022/03/04 01:23:18;;;;;;;1999.90;999.90;;;1.00;99.90;;;;;;5030755;28;20486;-70
2022/03/04 01:25:46;;;;;;;1999.90;999.90;;;1.10;99.90;;;;;;5032428;28;22503;-70
2022/03/04 01:28:13;;;;;;;1999.90;999.90;;;1.00;99.90;;;;;;5033565;28;20455;-70
2022/03/04 01:30:40;;;;;;;1999.90;999.90;;;1.10;99.90;;;;;;5033680;28;20447;-71
2022/03/04 01:33:06;;;;;;;1999.90;999.90;;;1.10;99.90;;;;;;5031854;28;20557;-70
2022/03/04 01:35:33;;;;;;;1999.90;999.90;;;1.10;99.90;;;;;;5032301;28;20527;-71
2022/03/04 01:38:00;;;;;;;1999.90;999.90;;;1.20;99.90;;;;;;5032243;28;20487;-70
2022/03/04 01:40:27;;;;;;;1999.90;999.90;;;1.20;99.90;;;;;;5032561;28;20467;-69
2022/03/04 01:42:55;;;;;;;1999.90;999.90;;;1.20;99.90;;;;;;5031167;28;20491;-71
2022/03/04 01:45:22;;;;;;;1999.90;999.90;;;1.10;99.90;;;;;;5032846;28;21021;-71
2022/03/04 01:47:49;;;;;;;1999.90;999.90;;;1.00;99.90;;;;;;5031360;28;20589;-70
2022/03/04 01:50:16;;;;;;;1999.90;999.90;;;1.00;99.90;;;;;;5032275;28;20510;-71
2022/03/04 01:52:43;;;;;;;1999.90;999.90;;;1.00;99.90;;;;;;5032497;28;20513;-70
2022/03/04 01:55:10;;;;;;;1999.90;999.90;;;1.00;99.90;;;;;;5032982;28;20967;-70
2022/03/04 01:57:38;;;;;;;1999.90;999.90;;;1.00;99.90;;;;;;5030647;28;21026;-71
2022/03/04 02:00:12;;;;;;;1999.90;999.90;;;1.00;99.90;;;;;;5032003;28;20505;-72
2022/03/04 02:02:39;;;;;;;1999.90;999.90;;;1.10;99.90;;;;;;5032053;28;20487;-70
2022/03/04 02:05:06;;;;;;;1999.90;999.90;;;1.00;99.90;;;;;;5032246;28;20471;-70
2022/03/04 02:07:33;;;;;;;1999.90;999.90;;;1.10;99.90;;;;;;5030673;28;20526;-70
2022/03/04 02:10:00;;;;;;;1999.90;999.90;;;1.20;99.90;;;;;;5030822;28;20463;-70
2022/03/04 02:12:27;;;;;;;1999.90;999.90;;;1.20;99.90;;;;;;5028627;28;20488;-70
2022/03/04 02:14:54;;;;;;;1999.90;999.90;;;1.30;99.90;;;;;;5026737;28;20991;-71
2022/03/04 02:17:22;;;;;;;1999.90;999.90;;;1.30;99.90;;;;;;5028621;28;20487;-68
2022/03/04 02:19:52;;;;;;;1999.90;999.90;;;1.30;99.90;;;;;;5025755;28;21022;-71
2022/03/04 02:22:20;;;;;;;1999.90;999.90;;;1.20;99.90;;;;;;5021868;28;20875;-70
2022/03/04 02:24:47;;;;;;;1999.90;999.90;;;1.20;99.90;;;;;;5027293;28;20490;-70
2022/03/04 02:27:13;;;;;;;1999.90;999.90;;;1.10;99.90;;;;;;5030450;28;20463;-70
2022/03/04 02:29:40;;;;;;;1999.90;999.90;;;1.10;99.90;;;;;;5032498;28;20447;-70
2022/03/04 02:32:07;;;;;;;1999.90;999.90;;;1.10;99.90;;;;;;5031613;28;21005;-70
2022/03/04 02:34:34;;;;;;;1999.90;999.90;;;1.00;99.90;;;;;;5027846;28;21026;-70
2022/03/04 02:37:01;;;;;;;1999.90;999.90;;;1.00;99.90;;;;;;5023823;28;20483;-69
2022/03/04 02:39:29;;;;;;;1999.90;999.90;;;1.00;99.90;;;;;;5026185;28;20463;-70
2022/03/04 02:41:55;;;;;;;1999.90;999.90;;;0.90;99.90;;;;;;5033359;28;20451;-70
2022/03/04 02:44:22;;;;;;;1999.90;999.90;;;1.00;99.90;;;;;;5020305;28;20533;-71
2022/03/04 02:46:48;;;;;;;1999.90;999.90;;;0.90;99.90;;;;;;5033209;28;20439;-67
2022/03/04 02:49:15;;;;;;;1999.90;999.90;;;1.00;99.90;;;;;;5031958;28;20513;-70
2022/03/04 02:51:42;;;;;;;1999.90;999.90;;;1.00;99.90;;;;;;5028758;28;20459;-70
2022/03/04 02:54:08;;;;;;;1999.90;999.90;;;0.90;99.90;;;;;;5027537;28;20532;-71
2022/03/04 02:56:37;;;;;;;1999.90;999.90;;;1.10;99.90;;;;;;5022222;28;20952;-69
2022/03/04 02:59:04;;;;;;;1999.90;999.90;;;1.00;99.90;;;;;;5024297;28;20529;-70
2022/03/04 03:01:30;;;;;;;1999.90;999.90;;;1.00;99.90;;;;;;5031904;28;20459;-70
2022/03/04 03:03:57;;;;;;;1999.90;999.90;;;1.00;99.90;;;;;;5019325;28;20536;-69
2022/03/04 03:06:24;;;;;;;1999.90;999.90;;;0.90;99.90;;;;;;5020785;28;20495;-71
2022/03/04 03:08:50;;;;;;;1999.90;999.90;;;1.00;99.90;;;;;;5028440;28;20463;-69
2022/03/04 03:11:17;;;;;;;1999.90;999.90;;;0.90;99.90;;;;;;5037061;28;20479;-70
2022/03/04 03:13:45;;;;;;;1999.90;999.90;;;0.90;99.90;;;;;;5026066;28;20482;-70
2022/03/04 03:16:12;;;;;;;1999.90;999.90;;;0.90;99.90;;;;;;5033890;28;20462;-70
2022/03/04 03:18:38;;;;;;;1999.90;999.90;;;0.80;99.90;;;;;;5029311;28;20483;-70
2022/03/04 03:21:05;;;;;;;1999.90;999.90;;;0.70;99.90;;;;;;5032305;28;20471;-71
2022/03/04 03:23:32;;;;;;;1999.90;999.90;;;0.70;99.90;;;;;;5030185;28;20570;-69
2022/03/04 03:25:58;;;;;;;1999.90;999.90;;;0.80;99.90;;;;;;5027447;28;20521;-69
2022/03/04 03:28:26;;;;;;;1999.90;999.90;;;0.80;99.90;;;;;;5035487;28;20891;-70
2022/03/04 03:30:54;;;;;;;1999.90;999.90;;;0.60;99.90;;;;;;5035531;28;20525;-70
2022/03/04 03:33:20;;;;;;;1999.90;999.90;;;0.70;99.90;;;;;;5033576;28;20537;-70
2022/03/04 03:35:47;;;;;;;1999.90;999.90;;;0.60;99.90;;;;;;5025153;28;20474;-70
2022/03/04 03:38:15;;;;;;;1999.90;999.90;;;0.80;99.90;;;;;;5031076;28;20521;-70
2022/03/04 03:40:42;;;;;;;1999.90;999.90;;;0.60;99.90;;;;;;5029169;28;21018;-71
2022/03/04 03:43:09;;;;;;;1999.90;999.90;;;1.00;99.90;;;;;;5033371;28;20494;-70
2022/03/04 03:45:35;;;;;;;1999.90;999.90;;;0.50;99.90;;;;;;5036394;28;20868;-69
2022/03/04 03:48:04;;;;;;;1999.90;999.90;;;0.50;99.90;;;;;;5035820;28;20459;-70
2022/03/04 03:50:31;;;;;;;1999.90;999.90;;;0.50;99.90;;;;;;5025729;28;20475;-71
2022/03/04 03:52:58;;;;;;;1999.90;999.90;;;0.60;99.90;;;;;;5032384;28;20486;-70
2022/03/04 03:55:25;;;;;;;1999.90;999.90;;;0.70;99.90;;;;;;5031404;28;20466;-70
2022/03/04 03:57:51;;;;;;;1999.90;999.90;;;0.70;99.90;;;;;;5034081;28;20540;-71
2022/03/04 04:00:18;;;;;;;1999.90;999.90;;;0.70;99.90;;;;;;5034656;28;20505;-71
2022/03/04 04:02:45;;;;;;;1999.90;999.90;;;0.60;99.90;;;;;;5035332;28;20509;-71
2022/03/04 04:05:13;;;;;;;1999.90;999.90;;;0.60;99.90;;;;;;5033688;28;20455;-70
2022/03/04 04:07:39;;;;;;;1999.90;999.90;;;0.60;99.90;;;;;;5035064;28;20872;-70
2022/03/04 04:10:07;;;;;;;1999.90;999.90;;;0.40;99.90;;;;;;5031900;28;20516;-71
2022/03/04 04:12:34;;;;;;;1999.90;999.90;;;0.40;99.90;;;;;;5034188;28;20506;-70
2022/03/04 04:15:00;;;;;;;1999.90;999.90;;;0.30;99.90;;;;;;5034174;28;20549;-71
2022/03/04 04:17:27;;;;;;;1999.90;999.90;;;0.20;99.90;;;;;;5034439;28;20483;-69
2022/03/04 04:19:54;;;;;;;1999.90;999.90;;;0.60;99.90;;;;;;5030477;28;20466;-70
2022/03/04 04:22:22;;;;;;;1999.90;999.90;;;0.30;99.90;;;;;;5027612;28;20451;-70
2022/03/04 04:24:48;;;;;;;1999.90;999.90;;;0.30;99.90;;;;;;5029053;28;20510;-70
2022/03/04 04:27:15;;;;;;;1999.90;999.90;;;-0.20;99.90;;;;;;5032477;28;20455;-70
2022/03/04 04:29:42;;;;;;;1999.90;999.90;;;0.40;99.90;;;;;;5045827;28;20459;-73
2022/03/04 04:32:09;;;;;;;1999.90;999.90;;;0.50;99.90;;;;;;5053815;28;20458;-69
2022/03/04 04:34:36;;;;;;;1999.90;999.90;;;0.40;99.90;;;;;;5056672;28;20435;-72
2022/03/04 04:37:03;;;;;;;1999.90;999.90;;;0.50;99.90;;;;;;5034573;28;20463;-67
2022/03/04 04:39:31;;;;;;;1999.90;999.90;;;0.50;99.90;;;;;;5033261;28;20451;-70
2022/03/04 04:41:57;;;;;;;1999.90;999.90;;;0.50;99.90;;;;;;5031196;28;20959;-70
2022/03/04 04:44:24;;;;;;;1999.90;999.90;;;0.50;99.90;;;;;;5030739;28;21010;-69
2022/03/04 04:46:51;;;;;;;1999.90;999.90;;;0.50;99.90;;;;;;5030053;28;20467;-69
2022/03/04 04:49:18;;;;;;;1999.90;999.90;;;1.00;99.90;;;;;;5028137;28;20834;-70
2022/03/04 04:51:44;;;;;;;1999.90;999.90;;;0.50;99.90;;;;;;5033025;28;20467;-70
2022/03/04 04:54:11;;;;;;;1999.90;999.90;;;0.50;99.90;;;;;;5034394;28;20483;-70
2022/03/04 04:56:39;;;;;;;1999.90;999.90;;;0.50;99.90;;;;;;5034128;28;20537;-70
2022/03/04 04:59:06;;;;;;;1999.90;999.90;;;0.50;99.90;;;;;;5033458;28;20491;-70
2022/03/04 05:01:32;;;;;;;1999.90;999.90;;;0.70;99.90;;;;;;5031036;28;20519;-67
2022/03/04 05:03:59;;;;;;;1999.90;999.90;;;0.80;99.90;;;;;;5029908;28;20488;-70
2022/03/04 05:06:26;;;;;;;1999.90;999.90;;;0.80;99.90;;;;;;5033704;28;20459;-71
2022/03/04 05:08:52;;;;;;;1999.90;999.90;;;0.80;99.90;;;;;;5034229;28;20459;-71
2022/03/04 05:11:19;;;;;;;1999.90;999.90;;;0.70;99.90;;;;;;5029359;28;20517;-70
2022/03/04 05:13:48;;;;;;;1999.90;999.90;;;0.70;99.90;;;;;;5030682;28;20483;-70
2022/03/04 05:16:14;;;;;;;1999.90;999.90;;;0.60;99.90;;;;;;5025054;28;20466;-70
2022/03/04 05:18:41;;;;;;;1999.90;999.90;;;0.60;99.90;;;;;;5028581;28;20530;-71
2022/03/04 05:21:08;;;;;;;1999.90;999.90;;;0.60;99.90;;;;;;5032685;28;20463;-70
2022/03/04 05:26:19;;;;;;;1999.90;999.90;;;0.50;99.90;;;;;;5024118;28;20514;-67
2022/03/04 05:28:47;;;;;;;1999.90;999.90;;;0.40;99.90;;;;;;5020820;28;20964;-70
2022/03/04 05:31:14;;;;;;;1999.90;999.90;;;0.50;99.90;;;;;;5026882;28;20459;-72
2022/03/04 05:33:40;;;;;;;1999.90;999.90;;;0.50;99.90;;;;;;5029894;28;20545;-69
2022/03/04 05:36:07;;;;;;;1999.90;999.90;;;0.50;99.90;;;;;;5034113;28;20447;-67
2022/03/04 05:38:34;;;;;;;1999.90;999.90;;;0.40;99.90;;;;;;5031057;28;20991;-70
2022/03/04 05:41:00;;;;;;;1999.90;999.90;;;0.40;99.90;;;;;;5030048;28;20872;-70
2022/03/04 05:43:27;;;;;;;1999.90;999.90;;;0.30;99.90;;;;;;5027842;28;20502;-70
2022/03/04 05:45:55;;;;;;;1999.90;999.90;;;0.30;99.90;;;;;;5032567;28;20467;-70
2022/03/04 05:48:22;;;;;;;1999.90;999.90;;;0.30;99.90;;;;;;5025241;28;20455;-70
2022/03/04 05:50:48;;;;;;;1999.90;999.90;;;0.30;99.90;;;;;;5032395;28;20459;-68
2022/03/04 05:53:15;;;;;;;1999.90;999.90;;;0.60;99.90;;;;;;5026746;28;20533;-70
2022/03/04 05:55:42;;;;;;;1999.90;999.90;;;0.40;99.90;;;;;;5033088;28;20955;-70
2022/03/04 05:58:08;;;;;;;1999.90;999.90;;;0.50;99.90;;;;;;5025282;28;20488;-70
2022/03/04 06:00:35;;;;;;;1999.90;999.90;;;0.60;99.90;;;;;;5026832;28;20468;-70
2022/03/04 06:03:03;;;;;;;1999.90;999.90;;;0.50;99.90;;;;;;5025665;28;20475;-70
2022/03/04 06:05:30;;;;;;;1999.90;999.90;;;0.50;99.90;;;;;;5033477;28;20506;-70
2022/03/04 06:07:57;;;;;;;1999.90;999.90;;;0.60;99.90;;;;;;5029033;28;20506;-70
2022/03/04 06:10:24;;;;;;;1999.90;999.90;;;0.60;99.90;;;;;;5031985;28;20499;-70
2022/03/04 06:12:50;;;;;;;1999.90;999.90;;;0.60;99.90;;;;;;5028817;28;20541;-70
2022/03/04 06:15:17;;;;;;;1999.90;999.90;;;0.60;99.90;;;;;;5029752;28;20903;-70
2022/03/04 06:17:47;;;;;;;1999.90;999.90;;;0.50;99.90;;;;;;5026258;28;20482;-69
2022/03/04 06:20:15;;;;;;;1999.90;999.90;;;0.50;99.90;;;;;;5032853;28;20439;-69
2022/03/04 06:22:42;;;;;;;1999.90;999.90;;;0.60;99.90;;;;;;5031335;28;20529;-70
2022/03/04 06:25:10;;;;;;;1999.90;999.90;;;0.50;99.90;;;;;;5027092;28;20463;-68
2022/03/04 06:27:37;;;;;;;1999.90;999.90;;;0.60;99.90;;;;;;5025775;28;20477;-68
2022/03/04 06:30:05;;;;;;;1999.90;999.90;;;0.60;99.90;;;;;;5029674;28;20498;-70
2022/03/04 06:32:32;;;;;;;1999.90;999.90;;;0.70;99.90;;;;;;5028917;28;20486;-70
2022/03/04 06:34:58;;;;;;;1999.90;999.90;;;1.50;99.90;;;;;;5031429;28;20455;-70
2022/03/04 06:37:26;;;;;;;1999.90;999.90;;;0.90;99.90;;;;;;5025070;28;20465;-70
2022/03/04 06:39:53;;;;;;;1999.90;999.90;;;0.90;99.90;;;;;;5029741;28;20560;-71
2022/03/04 06:42:20;;;;;;;1999.90;999.90;;;1.00;99.90;;;;;;5032336;28;20452;-70
2022/03/04 06:44:46;;;;;;;1999.90;999.90;;;1.00;99.90;;;;;;5033313;28;20447;-68
2022/03/04 06:47:13;;;;;;;1999.90;999.90;;;1.00;99.90;;;;;;5032869;28;20451;-71
2022/03/04 06:49:39;;;;;;;1999.90;999.90;;;1.00;99.90;;;;;;5033457;28;20447;-70
2022/03/04 06:52:06;;;;;;;1999.90;999.90;;;1.10;99.90;;;;;;5032383;28;20443;-71
2022/03/04 06:54:37;;;;;;;1999.90;999.90;;;1.10;99.90;;;;;;5032660;28;20471;-71
2022/03/04 06:57:04;;;;;;;1999.90;999.90;;;1.30;99.90;;;;;;5032502;28;20970;-70
2022/03/04 06:59:31;;;;;;;1999.90;999.90;;;1.10;99.90;;;;;;5031573;28;20479;-70
2022/03/04 07:01:58;;;;;;;1999.90;999.90;;;1.20;99.90;;;;;;5031729;28;20447;-72
2022/03/04 07:04:25;;;;;;;1999.90;999.90;;;1.80;99.90;;;;;;5032187;28;20473;-70
2022/03/04 07:06:51;;;;;;;1999.90;999.90;;;1.30;99.90;;;;;;5032130;28;20835;-71
2022/03/04 07:09:18;;;;;;;1999.90;999.90;;;1.20;99.90;;;;;;5032251;28;20504;-70
2022/03/04 07:11:46;;;;;;;1999.90;999.90;;;1.30;99.90;;;;;;5032230;28;20443;-71
2022/03/04 07:14:13;;;;;;;1999.90;999.90;;;1.30;99.90;;;;;;5032223;28;20463;-71
2022/03/04 07:16:40;;;;;;;1999.90;999.90;;;1.30;99.90;;;;;;5032258;28;20455;-71
2022/03/04 07:19:07;;;;;;;1999.90;999.90;;;1.30;99.90;;;;;;5032043;28;20493;-70
2022/03/04 07:21:33;;;;;;;1999.90;999.90;;;1.40;99.90;;;;;;5031722;28;20557;-71
2022/03/04 07:24:00;;;;;;;1999.90;999.90;;;1.40;99.90;;;;;;5032337;28;20475;-70
2022/03/04 07:26:27;;;;;;;1999.90;999.90;;;1.50;99.90;;;;;;5032278;28;20493;-71
2022/03/04 07:28:55;;;;;;;1999.90;999.90;;;1.50;99.90;;;;;;5031174;28;20501;-70
2022/03/04 07:31:21;;;;;;;1999.90;999.90;;;1.90;99.90;;;;;;5026986;28;20460;-70
2022/03/04 07:33:48;;;;;;;1999.90;999.90;;;1.60;99.90;;;;;;5031487;28;20463;-71
2022/03/04 07:36:15;;;;;;;1999.90;999.90;;;1.60;99.90;;;;;;5030210;28;20451;-70
2022/03/04 07:38:43;;;;;;;1999.90;999.90;;;1.70;99.90;;;;;;5030487;28;20524;-70
2022/03/04 07:41:10;;;;;;;1999.90;999.90;;;1.80;99.90;;;;;;5030632;28;20820;-70
2022/03/04 07:43:37;;;;;;;1999.90;999.90;;;1.90;99.90;;;;;;5031402;28;20486;-69
2022/03/04 07:46:05;;;;;;;1999.90;999.90;;;1.90;99.90;;;;;;5031374;28;20454;-70
2022/03/04 07:48:32;;;;;;;1999.90;999.90;;;2.00;99.90;;;;;;5025789;28;20860;-71
2022/03/04 07:50:58;;;;;;;1999.90;999.90;;;2.00;99.90;;;;;;5021008;28;20451;-70
2022/03/04 07:53:25;;;;;;;1999.90;999.90;;;2.00;99.90;;;;;;5033976;28;20497;-70
2022/03/04 07:55:52;;;;;;;1999.90;999.90;;;1.90;99.90;;;;;;5034343;28;20513;-70
2022/03/04 07:58:18;;;;;;;1999.90;999.90;;;1.70;99.90;;;;;;5032984;28;20490;-71
2022/03/04 08:00:45;;;;;;;1999.90;999.90;;;1.80;99.90;;;;;;5024637;28;20447;-71
2022/03/04 08:03:13;;;;;;;1999.90;999.90;;;1.90;99.90;;;;;;5034602;28;20471;-70
2022/03/04 08:05:40;;;;;;;1999.90;999.90;;;2.00;99.90;;;;;;5034071;28;20477;-70
2022/03/04 08:08:07;;;;;;;1999.90;999.90;;;2.00;99.90;;;;;;5034708;28;20449;-71
2022/03/04 08:10:34;;;;;;;1999.90;999.90;;;2.20;99.90;;;;;;5030203;28;20447;-71
2022/03/04 08:13:00;;;;;;;1999.90;999.90;;;2.30;99.90;;;;;;5033793;28;20467;-71
2022/03/04 08:15:27;;;;;;;1999.90;999.90;;;2.30;99.90;;;;;;5034054;28;20481;-70
2022/03/04 08:17:54;;;;;;;1999.90;999.90;;;2.30;99.90;;;;;;5032981;28;20948;-70
2022/03/04 08:20:22;;;;;;;1999.90;999.90;;;2.30;99.90;;;;;;5031737;28;20528;-71
2022/03/04 08:22:49;;;;;;;1999.90;999.90;;;2.30;99.90;;;;;;5034619;28;20564;-69
2022/03/04 08:25:15;;;;;;;1999.90;999.90;;;2.40;99.90;;;;;;5034047;28;20497;-70
2022/03/04 08:27:43;;;;;;;1999.90;999.90;;;2.30;99.90;;;;;;5033924;28;20481;-70
2022/03/04 08:30:12;;;;;;;1999.90;999.90;;;2.30;99.90;;;;;;5033059;28;20815;-68
2022/03/04 08:32:39;;;;;;;1999.90;999.90;;;2.30;99.90;;;;;;5032489;28;20467;-71
2022/03/04 08:35:08;;;;;;;1999.90;999.90;;;2.30;99.90;;;;;;5028043;28;20448;-71
2022/03/04 08:37:36;;;;;;;1999.90;999.90;;;2.30;99.90;;;;;;5016067;28;20449;-70
2022/03/04 08:40:04;;;;;;;1999.90;999.90;;;2.40;99.90;;;;;;5034338;28;20479;-71
2022/03/04 08:42:30;;;;;;;1999.90;999.90;;;2.50;99.90;;;;;;5033485;28;20475;-70
2022/03/04 08:44:57;;;;;;;1999.90;999.90;;;2.60;99.90;;;;;;5033311;28;20498;-70
2022/03/04 08:47:24;;;;;;;1999.90;999.90;;;2.60;99.90;;;;;;5032723;28;20474;-70
2022/03/04 08:49:51;;;;;;;1999.90;999.90;;;2.60;99.90;;;;;;5030503;28;20443;-70
2022/03/04 08:52:17;;;;;;;1999.90;999.90;;;2.70;99.90;;;;;;5030016;28;21012;-70
2022/03/04 08:54:45;;;;;;;1999.90;999.90;;;2.80;99.90;;;;;;5033185;28;20447;-72
2022/03/04 08:57:12;;;;;;;1999.90;999.90;;;2.80;99.90;;;;;;5033725;28;20506;-71
2022/03/04 08:59:39;;;;;;;1999.90;999.90;;;2.90;99.90;;;;;;5033028;28;20498;-71
2022/03/04 09:02:06;;;;;;;1999.90;999.90;;;2.90;99.90;;;;;;5033819;28;20451;-71
2022/03/04 09:04:33;;;;;;;1999.90;999.90;;;2.90;99.90;;;;;;5033687;28;20474;-71
2022/03/04 09:06:59;;;;;;;1999.90;999.90;;;2.80;99.90;;;;;;5033412;28;20460;-71
2022/03/04 09:09:27;;;;;;;1999.90;999.90;;;2.80;99.90;;;;;;5033698;28;20448;-71
2022/03/04 09:11:55;;;;;;;1999.90;999.90;;;2.60;99.90;;;;;;5033464;28;20496;-71
2022/03/04 09:14:23;;;;;;;1999.90;999.90;;;2.70;99.90;;;;;;5033481;28;20505;-70
2022/03/04 09:16:50;;;;;;;1999.90;999.90;;;2.80;99.90;;;;;;5041057;28;21015;-71
2022/03/04 09:19:17;;;;;;;1999.90;999.90;;;3.00;99.90;;;;;;5042586;28;20483;-71
2022/03/04 09:21:43;;;;;;;1999.90;999.90;;;2.90;99.90;;;;;;5042258;28;20459;-70
2022/03/04 09:24:10;;;;;;;1999.90;999.90;;;3.00;99.90;;;;;;5033460;28;20467;-71
2022/03/04 09:26:37;;;;;;;1999.90;999.90;;;2.90;99.90;;;;;;5030015;28;20451;-70
2022/03/04 09:29:05;;;;;;;1999.90;999.90;;;3.00;99.90;;;;;;5033443;28;20447;-70
2022/03/04 09:31:32;;;;;;;1999.90;999.90;;;3.00;99.90;;;;;;5032794;28;20451;-70
2022/03/04 09:33:58;;;;;;;1999.90;999.90;;;3.00;99.90;;;;;;5032820;28;20475;-70
2022/03/04 09:36:25;;;;;;;1999.90;999.90;;;3.20;99.90;;;;;;5033154;28;20993;-71
2022/03/04 09:38:52;;;;;;;1999.90;999.90;;;3.10;99.90;;;;;;5032887;28;20885;-70
2022/03/04 09:41:19;;;;;;;1999.90;999.90;;;3.10;99.90;;;;;;5033077;28;20451;-70
2022/03/04 09:43:47;;;;;;;1999.90;999.90;;;3.00;99.90;;;;;;5032788;28;20482;-70
2022/03/04 09:46:15;;;;;;;1999.90;999.90;;;3.00;99.90;;;;;;5033120;28;20455;-70
2022/03/04 09:48:44;;;;;;;1999.90;999.90;;;3.00;99.90;;;;;;5032781;28;20521;-72
2022/03/04 09:51:11;;;;;;;1999.90;999.90;;;2.90;99.90;;;;;;5032404;28;20453;-71
2022/03/04 09:53:37;;;;;;;1999.90;999.90;;;3.00;99.90;;;;;;5033150;28;20886;-70
2022/03/04 09:56:05;;;;;;;1999.90;999.90;;;3.20;99.90;;;;;;5033195;28;20884;-72
2022/03/04 09:58:32;;;;;;;1999.90;999.90;;;3.40;99.90;;;;;;5032514;28;20493;-71
2022/03/04 10:00:58;;;;;;;1999.90;999.90;;;3.40;99.90;;;;;;5032577;28;20505;-71
2022/03/04 10:03:47;;;;;;;1999.90;999.90;;;3.50;99.90;;;;;;5032305;28;20467;-70
2022/03/04 10:06:15;;;;;;;1999.90;999.90;;;3.40;99.90;;;;;;5032366;28;20431;-70
2022/03/04 10:08:43;;;;;;;1999.90;999.90;;;3.40;99.90;;;;;;5032792;28;20447;-71
2022/03/04 10:11:10;;;;;;;1999.90;999.90;;;3.50;99.90;;;;;;5032207;28;20534;-71
2022/03/04 10:13:45;;;;;;;1999.90;999.90;;;3.30;99.90;;;;;;5031207;28;20467;-70
2022/03/04 10:16:14;;;;;;;1999.90;999.90;;;3.30;99.90;;;;;;5031255;28;20447;-70
2022/03/04 10:18:41;;;;;;;1999.90;999.90;;;3.20;99.90;;;;;;5030446;28;20459;-71
2022/03/04 10:21:10;;;;;;;1999.90;999.90;;;3.00;99.90;;;;;;5031905;28;20443;-69
2022/03/04 10:23:37;;;;;;;1999.90;999.90;;;3.00;99.90;;;;;;5031710;28;20471;-70
2022/03/04 10:26:03;;;;;;;1999.90;999.90;;;3.20;99.90;;;;;;5031892;28;20513;-70
2022/03/04 10:28:32;;;;;;;1999.90;999.90;;;3.40;99.90;;;;;;5013073;28;20471;-68
2022/03/04 10:30:59;;;;;;;1999.90;999.90;;;3.60;99.90;;;;;;5016946;28;20816;-70
2022/03/04 10:33:29;;;;;;;1999.90;999.90;;;3.60;99.90;;;;;;5012927;28;20478;-71
2022/03/04 10:36:10;;;;;;;1999.90;999.90;;;3.70;99.90;;;;;;5023126;28;20449;-71
2022/03/04 10:38:38;;;;;;;1999.90;999.90;;;3.60;99.90;;;;;;5031707;28;20451;-71
2022/03/04 10:41:22;;;;;;;1999.90;999.90;;;3.60;99.90;;;;;;5032096;28;20537;-71
2022/03/04 10:43:48;;;;;;;1999.90;999.90;;;3.60;99.90;;;;;;5032064;28;20570;-70
2022/03/04 10:46:15;;;;;;;1999.90;999.90;;;3.60;99.90;;;;;;5032276;28;20447;-71
2022/03/04 10:48:51;;;;;;;1999.90;999.90;;;3.60;99.90;;;;;;5031814;28;20451;-71
2022/03/04 10:51:34;;;;;;;1999.90;999.90;;;3.70;99.90;;;;;;5031768;28;20481;-72
2022/03/04 10:54:11;;;;;;;1999.90;999.90;;;3.60;99.90;;;;;;5031993;28;20545;-71
2022/03/04 10:56:48;;;;;;;1999.90;999.90;;;3.60;99.90;;;;;;5031816;28;20447;-71
2022/03/04 10:59:15;;;;;;;1999.90;999.90;;;3.60;99.90;;;;;;5031692;28;20467;-71
2022/03/04 11:01:47;;;;;;;1999.90;999.90;;;3.60;99.90;;;;;;5030785;28;20447;-71
2022/03/04 11:04:13;;;;;;;1999.90;999.90;;;3.50;99.90;;;;;;5031846;28;20467;-72
2022/03/04 11:06:45;;;;;;;1999.90;999.90;;;3.50;99.90;;;;;;5031899;28;20443;-70
2022/03/04 11:09:12;;;;;;;1999.90;999.90;;;3.40;99.90;;;;;;5032003;28;20438;-71
2022/03/04 11:11:41;;;;;;;1999.90;999.90;;;3.30;99.90;;;;;;5031487;28;20443;-71
2022/03/04 11:14:09;;;;;;;1999.90;999.90;;;3.30;99.90;;;;;;5031950;28;20467;-70
2022/03/04 11:16:36;;;;;;;1999.90;999.90;;;3.00;99.90;;;;;;5032113;28;20512;-70
2022/03/04 11:19:03;;;;;;;1999.90;999.90;;;2.70;99.90;;;;;;5032622;28;20896;-71
2022/03/04 11:21:30;;;;;;;1999.90;999.90;;;2.50;99.90;;;;;;5032349;28;20451;-69
2022/03/04 11:23:58;;;;;;;1999.90;999.90;;;3.00;99.90;;;;;;5031988;28;20520;-69
2022/03/04 11:26:28;;;;;;;1999.90;999.90;;;2.40;99.90;;;;;;5031337;28;20446;-71
2022/03/04 11:28:56;;;;;;;1999.90;999.90;;;2.30;99.90;;;;;;5036050;28;20458;-71
2022/03/04 11:31:25;;;;;;;1999.90;999.90;;;2.20;99.90;;;;;;5016264;28;20506;-71
2022/03/04 11:33:53;;;;;;;1999.90;999.90;;;2.20;99.90;;;;;;5031472;28;20470;-71
2022/03/04 11:36:22;;;;;;;1999.90;999.90;;;2.20;99.90;;;;;;5034871;28;20459;-70
2022/03/04 11:39:12;;;;;;;1999.90;999.90;;;2.10;99.90;;;;;;5016455;28;20831;-70
2022/03/04 11:42:01;;;;;;;1999.90;999.90;;;2.10;99.90;;;;;;5020914;28;20447;-71
2022/03/04 11:44:28;;;;;;;1999.90;999.90;;;2.20;99.90;;;;;;5016262;28;20988;-71
2022/03/04 11:46:59;;;;;;;1999.90;999.90;;;2.20;99.90;;;;;;5027916;28;20459;-70
2022/03/04 11:49:34;;;;;;;1999.90;999.90;;;2.20;99.90;;;;;;5035266;28;20957;-73
2022/03/04 11:52:24;;;;;;;1999.90;999.90;;;2.30;99.90;;;;;;5034602;28;20526;-71
2022/03/04 11:55:26;;;;;;;1999.90;999.90;;;2.40;99.90;;;;;;5035070;28;20451;-71
2022/03/04 11:58:03;;;;;;;1999.90;999.90;;;2.50;99.90;;;;;;5035098;28;20457;-71
2022/03/04 12:00:35;;;;;;;1999.90;999.90;;;2.50;99.90;;;;;;5036325;28;20490;-71
2022/03/04 12:03:15;;;;;;;1999.90;999.90;;;2.50;99.90;;;;;;5036315;28;20553;-71
2022/03/04 12:05:51;;;;;;;1999.90;999.90;;;2.60;99.90;;;;;;5034945;28;20481;-71
2022/03/04 12:08:19;;;;;;;1999.90;999.90;;;2.70;99.90;;;;;;5026066;28;20438;-71
2022/03/04 12:10:53;;;;;;;1999.90;999.90;;;2.70;99.90;;;;;;5033211;28;20493;-70
2022/03/04 12:13:23;;;;;;;1999.90;999.90;;;2.70;99.90;;;;;;5034965;28;20466;-70
2022/03/04 12:15:57;;;;;;;1999.90;999.90;;;2.80;99.90;;;;;;5034456;28;20537;-71